sensor_id;sensor_type;location;lat;lon;timestamp;P1;durP1;ratioP1;P2;durP2;ratioP2
3991;SDS011;2010;48.194;16.394;2024-03-08T00:02:21;55.20;;;33.50;;
3991;SDS011;2010;48.194;16.394;2024-03-08T00:04:51;67.17;;;35.50;;
3991;SDS011;2010;48.194;16.394;2024-03-08T00:07:33;57.07;;;32.00;;
3991;SDS011;2010;48.194;16.394;2024-03-08T00:10:07;61.23;;;33.40;;
3991;SDS011;2010;48.194;16.394;2024-03-08T00:12:40;66.03;;;34.40;;
3991;SDS011;2010;48.194;16.394;2024-03-08T00:15:32;57.70;;;32.37;;
3991;SDS011;2010;48.194;16.394;2024-03-08T00:18:15;57.20;;;32.60;;
3991;SDS011;2010;48.194;16.394;2024-03-08T00:20:58;57.40;;;31.73;;
3991;SDS011;2010;48.194;16.394;2024-03-08T00:23:29;58.90;;;32.83;;
3991;SDS011;2010;48.194;16.394;2024-03-08T00:26:01;59.20;;;33.53;;
3991;SDS011;2010;48.194;16.394;2024-03-08T00:28:39;57.80;;;33.77;;
3991;SDS011;2010;48.194;16.394;2024-03-08T00:31:16;54.63;;;32.37;;
3991;SDS011;2010;48.194;16.394;2024-03-08T00:33:54;51.57;;;31.57;;
3991;SDS011;2010;48.194;16.394;2024-03-08T00:36:25;55.07;;;32.50;;
3991;SDS011;2010;48.194;16.394;2024-03-08T00:38:57;71.10;;;35.07;;
3991;SDS011;2010;48.194;16.394;2024-03-08T00:41:28;53.73;;;31.53;;
3991;SDS011;2010;48.194;16.394;2024-03-08T00:44:01;58.63;;;31.57;;
3991;SDS011;2010;48.194;16.394;2024-03-08T00:46:31;55.67;;;32.30;;
3991;SDS011;2010;48.194;16.394;2024-03-08T00:49:04;58.70;;;32.70;;
3991;SDS011;2010;48.194;16.394;2024-03-08T00:51:35;58.30;;;31.93;;
3991;SDS011;2010;48.194;16.394;2024-03-08T00:54:05;59.30;;;32.90;;
3991;SDS011;2010;48.194;16.394;2024-03-08T00:56:45;55.50;;;33.10;;
3991;SDS011;2010;48.194;16.394;2024-03-08T00:59:15;57.93;;;31.77;;
3991;SDS011;2010;48.194;16.394;2024-03-08T01:01:45;58.07;;;34.60;;
3991;SDS011;2010;48.194;16.394;2024-03-08T01:04:14;55.70;;;32.70;;
3991;SDS011;2010;48.194;16.394;2024-03-08T01:06:45;58.63;;;34.43;;
3991;SDS011;2010;48.194;16.394;2024-03-08T01:09:28;61.27;;;33.20;;
3991;SDS011;2010;48.194;16.394;2024-03-08T01:12:00;59.70;;;33.07;;
3991;SDS011;2010;48.194;16.394;2024-03-08T01:14:32;60.50;;;32.80;;
3991;SDS011;2010;48.194;16.394;2024-03-08T01:17:13;60.20;;;31.37;;
3991;SDS011;2010;48.194;16.394;2024-03-08T01:19:52;55.77;;;31.80;;
3991;SDS011;2010;48.194;16.394;2024-03-08T01:22:25;61.57;;;33.33;;
3991;SDS011;2010;48.194;16.394;2024-03-08T01:24:58;68.53;;;34.73;;
3991;SDS011;2010;48.194;16.394;2024-03-08T01:27:34;66.90;;;35.30;;
3991;SDS011;2010;48.194;16.394;2024-03-08T01:30:12;62.03;;;34.10;;
3991;SDS011;2010;48.194;16.394;2024-03-08T01:32:44;58.33;;;34.23;;
3991;SDS011;2010;48.194;16.394;2024-03-08T01:35:12;63.47;;;33.20;;
3991;SDS011;2010;48.194;16.394;2024-03-08T01:37:43;58.73;;;32.83;;
3991;SDS011;2010;48.194;16.394;2024-03-08T01:40:21;56.13;;;33.83;;
3991;SDS011;2010;48.194;16.394;2024-03-08T01:42:50;60.00;;;34.43;;
3991;SDS011;2010;48.194;16.394;2024-03-08T01:45:23;63.33;;;34.97;;
3991;SDS011;2010;48.194;16.394;2024-03-08T01:47:52;64.23;;;33.80;;
3991;SDS011;2010;48.194;16.394;2024-03-08T01:50:25;59.87;;;33.53;;
3991;SDS011;2010;48.194;16.394;2024-03-08T01:53:02;65.50;;;34.07;;
3991;SDS011;2010;48.194;16.394;2024-03-08T01:55:38;72.43;;;35.30;;
3991;SDS011;2010;48.194;16.394;2024-03-08T01:58:10;57.23;;;33.20;;
3991;SDS011;2010;48.194;16.394;2024-03-08T02:00:44;63.83;;;34.60;;
3991;SDS011;2010;48.194;16.394;2024-03-08T02:03:18;56.50;;;33.27;;
3991;SDS011;2010;48.194;16.394;2024-03-08T02:05:50;64.80;;;33.20;;
3991;SDS011;2010;48.194;16.394;2024-03-08T02:08:31;58.23;;;33.67;;
3991;SDS011;2010;48.194;16.394;2024-03-08T02:11:12;64.83;;;33.73;;
3991;SDS011;2010;48.194;16.394;2024-03-08T02:13:43;62.73;;;34.17;;
3991;SDS011;2010;48.194;16.394;2024-03-08T02:16:19;57.93;;;32.93;;
3991;SDS011;2010;48.194;16.394;2024-03-08T02:18:51;56.80;;;31.77;;
3991;SDS011;2010;48.194;16.394;2024-03-08T02:21:26;59.90;;;34.07;;
3991;SDS011;2010;48.194;16.394;2024-03-08T02:24:06;73.87;;;36.67;;
3991;SDS011;2010;48.194;16.394;2024-03-08T02:26:44;62.93;;;37.03;;
3991;SDS011;2010;48.194;16.394;2024-03-08T02:29:16;65.07;;;35.50;;
3991;SDS011;2010;48.194;16.394;2024-03-08T02:31:50;58.23;;;34.40;;
3991;SDS011;2010;48.194;16.394;2024-03-08T02:34:19;60.60;;;33.57;;
3991;SDS011;2010;48.194;16.394;2024-03-08T02:37:04;64.60;;;35.70;;
3991;SDS011;2010;48.194;16.394;2024-03-08T02:39:32;67.27;;;34.37;;
3991;SDS011;2010;48.194;16.394;2024-03-08T02:42:02;72.83;;;35.63;;
3991;SDS011;2010;48.194;16.394;2024-03-08T02:44:33;65.60;;;34.47;;
3991;SDS011;2010;48.194;16.394;2024-03-08T02:47:05;65.47;;;34.90;;
3991;SDS011;2010;48.194;16.394;2024-03-08T02:49:44;59.13;;;34.90;;
3991;SDS011;2010;48.194;16.394;2024-03-08T02:52:35;62.10;;;34.90;;
3991;SDS011;2010;48.194;16.394;2024-03-08T02:55:08;63.10;;;35.40;;
3991;SDS011;2010;48.194;16.394;2024-03-08T02:57:44;60.73;;;34.97;;
3991;SDS011;2010;48.194;16.394;2024-03-08T03:00:16;59.33;;;34.03;;
3991;SDS011;2010;48.194;16.394;2024-03-08T03:02:54;68.60;;;34.90;;
3991;SDS011;2010;48.194;16.394;2024-03-08T03:05:24;58.00;;;33.23;;
3991;SDS011;2010;48.194;16.394;2024-03-08T03:08:08;64.83;;;33.00;;
3991;SDS011;2010;48.194;16.394;2024-03-08T03:10:41;58.77;;;34.93;;
3991;SDS011;2010;48.194;16.394;2024-03-08T03:13:19;64.50;;;33.90;;
3991;SDS011;2010;48.194;16.394;2024-03-08T03:15:48;59.30;;;32.67;;
3991;SDS011;2010;48.194;16.394;2024-03-08T03:18:20;66.33;;;35.87;;
3991;SDS011;2010;48.194;16.394;2024-03-08T03:20:51;64.83;;;34.30;;
3991;SDS011;2010;48.194;16.394;2024-03-08T03:23:25;58.13;;;33.80;;
3991;SDS011;2010;48.194;16.394;2024-03-08T03:25:54;62.57;;;34.93;;
3991;SDS011;2010;48.194;16.394;2024-03-08T03:28:31;66.60;;;36.10;;
3991;SDS011;2010;48.194;16.394;2024-03-08T03:31:01;64.57;;;36.33;;
3991;SDS011;2010;48.194;16.394;2024-03-08T03:33:37;57.53;;;32.90;;
3991;SDS011;2010;48.194;16.394;2024-03-08T03:36:09;66.63;;;35.97;;
3991;SDS011;2010;48.194;16.394;2024-03-08T03:38:52;62.30;;;34.67;;
3991;SDS011;2010;48.194;16.394;2024-03-08T03:41:35;59.63;;;32.40;;
3991;SDS011;2010;48.194;16.394;2024-03-08T03:44:06;67.30;;;36.00;;
3991;SDS011;2010;48.194;16.394;2024-03-08T03:46:41;58.53;;;33.97;;
3991;SDS011;2010;48.194;16.394;2024-03-08T03:49:13;57.97;;;33.93;;
3991;SDS011;2010;48.194;16.394;2024-03-08T03:51:45;62.67;;;34.50;;
3991;SDS011;2010;48.194;16.394;2024-03-08T03:54:15;59.27;;;34.60;;
3991;SDS011;2010;48.194;16.394;2024-03-08T03:56:46;63.40;;;33.67;;
3991;SDS011;2010;48.194;16.394;2024-03-08T03:59:18;65.97;;;34.80;;
3991;SDS011;2010;48.194;16.394;2024-03-08T04:01:48;59.73;;;34.47;;
3991;SDS011;2010;48.194;16.394;2024-03-08T04:04:21;64.40;;;35.30;;
3991;SDS011;2010;48.194;16.394;2024-03-08T04:06:53;56.00;;;32.90;;
3991;SDS011;2010;48.194;16.394;2024-03-08T04:09:31;64.27;;;34.90;;
3991;SDS011;2010;48.194;16.394;2024-03-08T04:12:01;61.43;;;34.17;;
3991;SDS011;2010;48.194;16.394;2024-03-08T04:14:35;63.63;;;34.83;;
3991;SDS011;2010;48.194;16.394;2024-03-08T04:17:05;59.93;;;34.23;;
3991;SDS011;2010;48.194;16.394;2024-03-08T04:19:38;61.37;;;35.40;;
3991;SDS011;2010;48.194;16.394;2024-03-08T04:22:08;66.43;;;36.67;;
3991;SDS011;2010;48.194;16.394;2024-03-08T04:24:55;64.40;;;33.57;;
3991;SDS011;2010;48.194;16.394;2024-03-08T04:27:24;61.80;;;32.87;;
3991;SDS011;2010;48.194;16.394;2024-03-08T04:29:53;60.83;;;35.13;;
3991;SDS011;2010;48.194;16.394;2024-03-08T04:32:27;59.00;;;32.90;;
3991;SDS011;2010;48.194;16.394;2024-03-08T04:35:01;61.80;;;36.27;;
3991;SDS011;2010;48.194;16.394;2024-03-08T04:37:33;61.60;;;35.70;;
3991;SDS011;2010;48.194;16.394;2024-03-08T04:40:06;63.10;;;34.83;;
3991;SDS011;2010;48.194;16.394;2024-03-08T04:42:39;63.63;;;33.20;;
3991;SDS011;2010;48.194;16.394;2024-03-08T04:45:15;65.43;;;38.23;;
3991;SDS011;2010;48.194;16.394;2024-03-08T04:47:50;56.50;;;34.13;;
3991;SDS011;2010;48.194;16.394;2024-03-08T04:50:20;61.53;;;33.77;;
3991;SDS011;2010;48.194;16.394;2024-03-08T04:52:53;62.53;;;35.90;;
3991;SDS011;2010;48.194;16.394;2024-03-08T04:55:35;62.03;;;35.57;;
3991;SDS011;2010;48.194;16.394;2024-03-08T04:58:05;60.97;;;34.73;;
3991;SDS011;2010;48.194;16.394;2024-03-08T05:00:35;55.60;;;33.60;;
3991;SDS011;2010;48.194;16.394;2024-03-08T05:03:11;63.27;;;35.37;;
3991;SDS011;2010;48.194;16.394;2024-03-08T05:05:44;63.63;;;36.07;;
3991;SDS011;2010;48.194;16.394;2024-03-08T05:08:15;71.97;;;36.83;;
3991;SDS011;2010;48.194;16.394;2024-03-08T05:11:00;57.70;;;34.33;;
3991;SDS011;2010;48.194;16.394;2024-03-08T05:13:32;63.30;;;34.97;;
3991;SDS011;2010;48.194;16.394;2024-03-08T05:16:06;59.43;;;32.50;;
3991;SDS011;2010;48.194;16.394;2024-03-08T05:18:35;57.50;;;33.40;;
3991;SDS011;2010;48.194;16.394;2024-03-08T05:21:12;61.17;;;35.60;;
3991;SDS011;2010;48.194;16.394;2024-03-08T05:23:48;62.70;;;35.53;;
3991;SDS011;2010;48.194;16.394;2024-03-08T05:26:19;58.60;;;34.00;;
3991;SDS011;2010;48.194;16.394;2024-03-08T05:29:00;67.00;;;33.90;;
3991;SDS011;2010;48.194;16.394;2024-03-08T05:31:34;61.63;;;34.33;;
3991;SDS011;2010;48.194;16.394;2024-03-08T05:34:18;57.70;;;33.57;;
3991;SDS011;2010;48.194;16.394;2024-03-08T05:36:52;62.07;;;33.67;;
3991;SDS011;2010;48.194;16.394;2024-03-08T05:39:26;61.63;;;34.07;;
3991;SDS011;2010;48.194;16.394;2024-03-08T05:42:07;67.83;;;35.50;;
3991;SDS011;2010;48.194;16.394;2024-03-08T05:44:44;64.87;;;36.10;;
3991;SDS011;2010;48.194;16.394;2024-03-08T05:47:13;61.10;;;34.33;;
3991;SDS011;2010;48.194;16.394;2024-03-08T05:49:46;61.50;;;35.90;;
3991;SDS011;2010;48.194;16.394;2024-03-08T05:52:17;60.57;;;35.23;;
3991;SDS011;2010;48.194;16.394;2024-03-08T05:54:49;62.77;;;33.50;;
3991;SDS011;2010;48.194;16.394;2024-03-08T05:57:31;58.37;;;34.23;;
3991;SDS011;2010;48.194;16.394;2024-03-08T06:00:06;65.80;;;35.57;;
3991;SDS011;2010;48.194;16.394;2024-03-08T06:02:40;63.80;;;34.43;;
3991;SDS011;2010;48.194;16.394;2024-03-08T06:05:15;56.90;;;32.83;;
3991;SDS011;2010;48.194;16.394;2024-03-08T06:07:52;55.07;;;33.33;;
3991;SDS011;2010;48.194;16.394;2024-03-08T06:10:27;61.60;;;35.00;;
3991;SDS011;2010;48.194;16.394;2024-03-08T06:13:03;57.83;;;34.73;;
3991;SDS011;2010;48.194;16.394;2024-03-08T06:15:39;63.33;;;35.00;;
3991;SDS011;2010;48.194;16.394;2024-03-08T06:18:09;58.40;;;33.80;;
3991;SDS011;2010;48.194;16.394;2024-03-08T06:20:40;63.50;;;35.43;;
3991;SDS011;2010;48.194;16.394;2024-03-08T06:23:23;64.83;;;35.37;;
3991;SDS011;2010;48.194;16.394;2024-03-08T06:25:55;65.33;;;35.57;;
3991;SDS011;2010;48.194;16.394;2024-03-08T06:28:35;65.77;;;35.53;;
3991;SDS011;2010;48.194;16.394;2024-03-08T06:31:04;68.37;;;35.70;;
3991;SDS011;2010;48.194;16.394;2024-03-08T06:33:37;59.43;;;33.73;;
3991;SDS011;2010;48.194;16.394;2024-03-08T06:36:08;61.33;;;35.60;;
3991;SDS011;2010;48.194;16.394;2024-03-08T06:38:48;62.50;;;36.70;;
3991;SDS011;2010;48.194;16.394;2024-03-08T06:41:19;57.30;;;33.13;;
3991;SDS011;2010;48.194;16.394;2024-03-08T06:43:56;65.77;;;35.57;;
3991;SDS011;2010;48.194;16.394;2024-03-08T06:46:26;63.80;;;36.37;;
3991;SDS011;2010;48.194;16.394;2024-03-08T06:48:57;65.47;;;36.93;;
3991;SDS011;2010;48.194;16.394;2024-03-08T06:51:27;63.03;;;36.33;;
3991;SDS011;2010;48.194;16.394;2024-03-08T06:54:00;57.40;;;35.60;;
3991;SDS011;2010;48.194;16.394;2024-03-08T06:56:39;61.60;;;36.27;;
3991;SDS011;2010;48.194;16.394;2024-03-08T06:59:20;67.00;;;36.97;;
3991;SDS011;2010;48.194;16.394;2024-03-08T07:01:59;61.50;;;33.73;;
3991;SDS011;2010;48.194;16.394;2024-03-08T07:04:29;59.07;;;33.90;;
3991;SDS011;2010;48.194;16.394;2024-03-08T07:07:00;58.97;;;35.30;;
3991;SDS011;2010;48.194;16.394;2024-03-08T07:09:33;59.07;;;34.23;;
3991;SDS011;2010;48.194;16.394;2024-03-08T07:12:06;55.50;;;32.80;;
3991;SDS011;2010;48.194;16.394;2024-03-08T07:14:40;54.70;;;34.87;;
3991;SDS011;2010;48.194;16.394;2024-03-08T07:17:13;62.50;;;33.27;;
3991;SDS011;2010;48.194;16.394;2024-03-08T07:19:45;61.97;;;34.40;;
3991;SDS011;2010;48.194;16.394;2024-03-08T07:22:17;58.83;;;35.43;;
3991;SDS011;2010;48.194;16.394;2024-03-08T07:24:55;55.80;;;32.83;;
3991;SDS011;2010;48.194;16.394;2024-03-08T07:27:44;59.93;;;33.67;;
3991;SDS011;2010;48.194;16.394;2024-03-08T07:30:30;55.30;;;33.50;;
3991;SDS011;2010;48.194;16.394;2024-03-08T07:33:16;52.20;;;32.40;;
3991;SDS011;2010;48.194;16.394;2024-03-08T07:35:49;52.90;;;32.33;;
3991;SDS011;2010;48.194;16.394;2024-03-08T07:38:19;59.40;;;34.10;;
3991;SDS011;2010;48.194;16.394;2024-03-08T07:41:03;55.57;;;32.50;;
3991;SDS011;2010;48.194;16.394;2024-03-08T07:43:39;55.93;;;33.60;;
3991;SDS011;2010;48.194;16.394;2024-03-08T07:46:21;57.77;;;34.80;;
3991;SDS011;2010;48.194;16.394;2024-03-08T07:48:55;57.47;;;32.30;;
3991;SDS011;2010;48.194;16.394;2024-03-08T07:51:25;52.93;;;32.57;;
3991;SDS011;2010;48.194;16.394;2024-03-08T07:54:00;57.37;;;34.03;;
3991;SDS011;2010;48.194;16.394;2024-03-08T07:56:35;54.13;;;31.90;;
3991;SDS011;2010;48.194;16.394;2024-03-08T07:59:04;56.87;;;34.43;;
3991;SDS011;2010;48.194;16.394;2024-03-08T08:01:38;55.83;;;32.17;;
3991;SDS011;2010;48.194;16.394;2024-03-08T08:04:14;57.60;;;32.40;;
3991;SDS011;2010;48.194;16.394;2024-03-08T08:06:46;52.80;;;31.67;;
3991;SDS011;2010;48.194;16.394;2024-03-08T08:09:23;54.27;;;32.73;;
3991;SDS011;2010;48.194;16.394;2024-03-08T08:12:02;54.13;;;33.10;;
3991;SDS011;2010;48.194;16.394;2024-03-08T08:14:39;56.87;;;33.67;;
3991;SDS011;2010;48.194;16.394;2024-03-08T08:17:27;64.60;;;34.37;;
3991;SDS011;2010;48.194;16.394;2024-03-08T08:19:55;58.00;;;32.37;;
3991;SDS011;2010;48.194;16.394;2024-03-08T08:22:25;59.77;;;33.33;;
3991;SDS011;2010;48.194;16.394;2024-03-08T08:24:56;66.33;;;34.40;;
3991;SDS011;2010;48.194;16.394;2024-03-08T08:27:26;54.73;;;33.30;;
3991;SDS011;2010;48.194;16.394;2024-03-08T08:30:04;57.73;;;34.03;;
3991;SDS011;2010;48.194;16.394;2024-03-08T08:32:50;57.67;;;33.23;;
3991;SDS011;2010;48.194;16.394;2024-03-08T08:35:26;57.10;;;32.43;;
3991;SDS011;2010;48.194;16.394;2024-03-08T08:37:57;62.30;;;34.20;;
3991;SDS011;2010;48.194;16.394;2024-03-08T08:40:30;60.70;;;33.67;;
3991;SDS011;2010;48.194;16.394;2024-03-08T08:43:09;55.33;;;32.80;;
3991;SDS011;2010;48.194;16.394;2024-03-08T08:45:41;56.23;;;32.80;;
3991;SDS011;2010;48.194;16.394;2024-03-08T08:48:17;57.03;;;32.43;;
3991;SDS011;2010;48.194;16.394;2024-03-08T08:50:57;59.93;;;34.20;;
3991;SDS011;2010;48.194;16.394;2024-03-08T08:53:27;62.60;;;35.90;;
3991;SDS011;2010;48.194;16.394;2024-03-08T08:55:58;60.70;;;34.30;;
3991;SDS011;2010;48.194;16.394;2024-03-08T08:58:28;62.73;;;36.47;;
3991;SDS011;2010;48.194;16.394;2024-03-08T09:00:58;61.77;;;35.83;;
3991;SDS011;2010;48.194;16.394;2024-03-08T09:03:34;68.10;;;35.67;;
3991;SDS011;2010;48.194;16.394;2024-03-08T09:06:07;68.90;;;37.43;;
3991;SDS011;2010;48.194;16.394;2024-03-08T09:08:37;64.67;;;36.80;;
3991;SDS011;2010;48.194;16.394;2024-03-08T09:11:14;54.70;;;32.57;;
3991;SDS011;2010;48.194;16.394;2024-03-08T09:13:44;66.03;;;35.60;;
3991;SDS011;2010;48.194;16.394;2024-03-08T09:16:18;63.30;;;35.57;;
3991;SDS011;2010;48.194;16.394;2024-03-08T09:18:51;64.37;;;35.50;;
3991;SDS011;2010;48.194;16.394;2024-03-08T09:21:22;65.13;;;35.83;;
3991;SDS011;2010;48.194;16.394;2024-03-08T09:23:54;71.53;;;35.60;;
3991;SDS011;2010;48.194;16.394;2024-03-08T09:26:23;82.50;;;38.83;;
3991;SDS011;2010;48.194;16.394;2024-03-08T09:28:57;79.30;;;35.60;;
3991;SDS011;2010;48.194;16.394;2024-03-08T09:31:37;78.20;;;37.53;;
3991;SDS011;2010;48.194;16.394;2024-03-08T09:34:22;74.30;;;37.80;;
3991;SDS011;2010;48.194;16.394;2024-03-08T09:37:04;85.37;;;38.60;;
3991;SDS011;2010;48.194;16.394;2024-03-08T09:39:39;79.87;;;37.87;;
3991;SDS011;2010;48.194;16.394;2024-03-08T09:42:08;76.70;;;37.67;;
3991;SDS011;2010;48.194;16.394;2024-03-08T09:44:45;93.80;;;39.33;;
3991;SDS011;2010;48.194;16.394;2024-03-08T09:47:18;76.53;;;38.67;;
3991;SDS011;2010;48.194;16.394;2024-03-08T09:50:06;78.30;;;37.57;;
3991;SDS011;2010;48.194;16.394;2024-03-08T09:52:39;81.83;;;39.50;;
3991;SDS011;2010;48.194;16.394;2024-03-08T09:55:14;76.37;;;38.20;;
3991;SDS011;2010;48.194;16.394;2024-03-08T09:57:51;76.70;;;37.07;;
3991;SDS011;2010;48.194;16.394;2024-03-08T10:00:39;79.13;;;38.73;;
3991;SDS011;2010;48.194;16.394;2024-03-08T10:03:11;77.50;;;37.07;;
3991;SDS011;2010;48.194;16.394;2024-03-08T10:05:46;66.47;;;35.73;;
3991;SDS011;2010;48.194;16.394;2024-03-08T10:08:17;82.47;;;35.70;;
3991;SDS011;2010;48.194;16.394;2024-03-08T10:11:01;71.93;;;37.37;;
3991;SDS011;2010;48.194;16.394;2024-03-08T10:13:31;69.07;;;35.47;;
3991;SDS011;2010;48.194;16.394;2024-03-08T10:16:03;76.23;;;34.90;;
3991;SDS011;2010;48.194;16.394;2024-03-08T10:18:33;75.90;;;35.00;;
3991;SDS011;2010;48.194;16.394;2024-03-08T10:21:13;76.93;;;35.20;;
3991;SDS011;2010;48.194;16.394;2024-03-08T10:23:43;69.27;;;34.47;;
3991;SDS011;2010;48.194;16.394;2024-03-08T10:26:13;60.97;;;29.13;;
3991;SDS011;2010;48.194;16.394;2024-03-08T10:28:49;62.27;;;31.70;;
3991;SDS011;2010;48.194;16.394;2024-03-08T10:31:19;50.70;;;27.70;;
3991;SDS011;2010;48.194;16.394;2024-03-08T10:33:51;57.57;;;29.33;;
3991;SDS011;2010;48.194;16.394;2024-03-08T10:36:25;57.43;;;28.50;;
3991;SDS011;2010;48.194;16.394;2024-03-08T10:38:57;56.83;;;28.57;;
3991;SDS011;2010;48.194;16.394;2024-03-08T10:41:30;48.77;;;26.10;;
3991;SDS011;2010;48.194;16.394;2024-03-08T10:44:07;51.00;;;26.23;;
3991;SDS011;2010;48.194;16.394;2024-03-08T10:46:49;48.13;;;24.93;;
3991;SDS011;2010;48.194;16.394;2024-03-08T10:49:30;44.43;;;24.27;;
3991;SDS011;2010;48.194;16.394;2024-03-08T10:52:06;50.17;;;26.43;;
3991;SDS011;2010;48.194;16.394;2024-03-08T10:54:37;44.10;;;25.13;;
3991;SDS011;2010;48.194;16.394;2024-03-08T10:57:12;45.47;;;27.03;;
3991;SDS011;2010;48.194;16.394;2024-03-08T10:59:51;44.37;;;24.27;;
3991;SDS011;2010;48.194;16.394;2024-03-08T11:02:36;43.43;;;25.53;;
3991;SDS011;2010;48.194;16.394;2024-03-08T11:05:10;42.50;;;25.70;;
3991;SDS011;2010;48.194;16.394;2024-03-08T11:07:54;37.13;;;23.63;;
3991;SDS011;2010;48.194;16.394;2024-03-08T11:10:26;38.37;;;22.20;;
3991;SDS011;2010;48.194;16.394;2024-03-08T11:12:58;33.43;;;21.20;;
3991;SDS011;2010;48.194;16.394;2024-03-08T11:15:31;32.00;;;19.10;;
3991;SDS011;2010;48.194;16.394;2024-03-08T11:18:04;31.80;;;17.97;;
3991;SDS011;2010;48.194;16.394;2024-03-08T11:20:39;29.40;;;17.33;;
3991;SDS011;2010;48.194;16.394;2024-03-08T11:23:19;15.97;;;11.00;;
3991;SDS011;2010;48.194;16.394;2024-03-08T11:25:58;14.90;;;10.00;;
3991;SDS011;2010;48.194;16.394;2024-03-08T11:28:32;11.67;;;8.80;;
3991;SDS011;2010;48.194;16.394;2024-03-08T11:33:53;18.03;;;10.47;;
3991;SDS011;2010;48.194;16.394;2024-03-08T11:36:25;15.90;;;11.20;;
3991;SDS011;2010;48.194;16.394;2024-03-08T11:39:08;16.90;;;11.43;;
3991;SDS011;2010;48.194;16.394;2024-03-08T11:41:42;15.67;;;10.33;;
3991;SDS011;2010;48.194;16.394;2024-03-08T11:44:13;15.00;;;10.63;;
3991;SDS011;2010;48.194;16.394;2024-03-08T11:46:54;20.27;;;13.60;;
3991;SDS011;2010;48.194;16.394;2024-03-08T11:49:28;27.03;;;15.50;;
3991;SDS011;2010;48.194;16.394;2024-03-08T11:52:24;26.90;;;16.47;;
3991;SDS011;2010;48.194;16.394;2024-03-08T11:54:54;24.43;;;16.40;;
3991;SDS011;2010;48.194;16.394;2024-03-08T11:57:25;25.10;;;15.83;;
3991;SDS011;2010;48.194;16.394;2024-03-08T11:59:58;26.10;;;16.53;;
3991;SDS011;2010;48.194;16.394;2024-03-08T12:02:37;19.47;;;12.53;;
3991;SDS011;2010;48.194;16.394;2024-03-08T12:05:09;18.17;;;12.90;;
3991;SDS011;2010;48.194;16.394;2024-03-08T12:07:38;16.80;;;11.40;;
3991;SDS011;2010;48.194;16.394;2024-03-08T12:10:19;15.43;;;10.63;;
3991;SDS011;2010;48.194;16.394;2024-03-08T12:12:56;15.93;;;10.97;;
3991;SDS011;2010;48.194;16.394;2024-03-08T12:15:28;20.27;;;13.23;;
3991;SDS011;2010;48.194;16.394;2024-03-08T12:18:09;17.37;;;12.57;;
3991;SDS011;2010;48.194;16.394;2024-03-08T12:20:40;17.63;;;11.50;;
3991;SDS011;2010;48.194;16.394;2024-03-08T12:23:15;17.57;;;12.53;;
3991;SDS011;2010;48.194;16.394;2024-03-08T12:25:48;20.73;;;13.30;;
3991;SDS011;2010;48.194;16.394;2024-03-08T12:28:21;22.83;;;14.73;;
3991;SDS011;2010;48.194;16.394;2024-03-08T12:30:50;21.97;;;13.87;;
3991;SDS011;2010;48.194;16.394;2024-03-08T12:33:31;20.00;;;13.80;;
3991;SDS011;2010;48.194;16.394;2024-03-08T12:36:10;22.53;;;14.80;;
3991;SDS011;2010;48.194;16.394;2024-03-08T12:38:48;18.90;;;13.07;;
3991;SDS011;2010;48.194;16.394;2024-03-08T12:41:31;20.47;;;13.27;;
3991;SDS011;2010;48.194;16.394;2024-03-08T12:44:02;19.80;;;12.90;;
3991;SDS011;2010;48.194;16.394;2024-03-08T12:46:35;20.13;;;12.80;;
3991;SDS011;2010;48.194;16.394;2024-03-08T12:49:04;21.77;;;13.57;;
3991;SDS011;2010;48.194;16.394;2024-03-08T12:51:40;20.77;;;13.80;;
3991;SDS011;2010;48.194;16.394;2024-03-08T12:54:22;18.67;;;12.10;;
3991;SDS011;2010;48.194;16.394;2024-03-08T12:57:10;20.23;;;11.90;;
3991;SDS011;2010;48.194;16.394;2024-03-08T12:59:42;15.63;;;10.97;;
3991;SDS011;2010;48.194;16.394;2024-03-08T13:02:16;16.97;;;12.10;;
3991;SDS011;2010;48.194;16.394;2024-03-08T13:04:45;17.13;;;11.33;;
3991;SDS011;2010;48.194;16.394;2024-03-08T13:07:21;16.73;;;11.60;;
3991;SDS011;2010;48.194;16.394;2024-03-08T13:09:52;17.97;;;12.30;;
3991;SDS011;2010;48.194;16.394;2024-03-08T13:12:41;18.70;;;12.53;;
3991;SDS011;2010;48.194;16.394;2024-03-08T13:15:10;18.20;;;11.63;;
3991;SDS011;2010;48.194;16.394;2024-03-08T13:17:44;14.63;;;10.43;;
3991;SDS011;2010;48.194;16.394;2024-03-08T13:20:15;18.07;;;11.63;;
3991;SDS011;2010;48.194;16.394;2024-03-08T13:22:57;18.53;;;11.10;;
3991;SDS011;2010;48.194;16.394;2024-03-08T13:25:34;13.40;;;10.10;;
3991;SDS011;2010;48.194;16.394;2024-03-08T13:28:20;14.63;;;10.50;;
3991;SDS011;2010;48.194;16.394;2024-03-08T13:30:52;15.20;;;10.53;;
3991;SDS011;2010;48.194;16.394;2024-03-08T13:33:26;16.17;;;10.30;;
3991;SDS011;2010;48.194;16.394;2024-03-08T13:36:03;17.00;;;11.40;;
3991;SDS011;2010;48.194;16.394;2024-03-08T13:38:43;16.77;;;11.17;;
3991;SDS011;2010;48.194;16.394;2024-03-08T13:41:16;15.93;;;10.23;;
3991;SDS011;2010;48.194;16.394;2024-03-08T13:44:02;16.60;;;10.97;;
3991;SDS011;2010;48.194;16.394;2024-03-08T13:46:34;15.13;;;10.13;;
3991;SDS011;2010;48.194;16.394;2024-03-08T13:49:05;16.13;;;11.23;;
3991;SDS011;2010;48.194;16.394;2024-03-08T13:51:36;14.73;;;10.40;;
3991;SDS011;2010;48.194;16.394;2024-03-08T13:54:05;15.13;;;11.10;;
3991;SDS011;2010;48.194;16.394;2024-03-08T13:56:39;19.60;;;13.03;;
3991;SDS011;2010;48.194;16.394;2024-03-08T13:59:21;15.70;;;11.93;;
3991;SDS011;2010;48.194;16.394;2024-03-08T14:01:59;15.10;;;10.63;;
3991;SDS011;2010;48.194;16.394;2024-03-08T14:04:31;16.03;;;11.17;;
3991;SDS011;2010;48.194;16.394;2024-03-08T14:07:04;17.90;;;12.60;;
3991;SDS011;2010;48.194;16.394;2024-03-08T14:09:36;15.57;;;10.90;;
3991;SDS011;2010;48.194;16.394;2024-03-08T14:12:13;17.80;;;12.53;;
3991;SDS011;2010;48.194;16.394;2024-03-08T14:14:53;17.80;;;11.97;;
3991;SDS011;2010;48.194;16.394;2024-03-08T14:17:28;17.60;;;11.63;;
3991;SDS011;2010;48.194;16.394;2024-03-08T14:20:02;21.93;;;13.60;;
3991;SDS011;2010;48.194;16.394;2024-03-08T14:22:36;14.57;;;11.03;;
3991;SDS011;2010;48.194;16.394;2024-03-08T14:25:10;17.23;;;11.77;;
3991;SDS011;2010;48.194;16.394;2024-03-08T14:27:45;18.27;;;11.80;;
3991;SDS011;2010;48.194;16.394;2024-03-08T14:30:17;19.30;;;12.53;;
3991;SDS011;2010;48.194;16.394;2024-03-08T14:33:00;18.60;;;13.27;;
3991;SDS011;2010;48.194;16.394;2024-03-08T14:35:34;17.77;;;12.37;;
3991;SDS011;2010;48.194;16.394;2024-03-08T14:38:03;20.20;;;13.23;;
3991;SDS011;2010;48.194;16.394;2024-03-08T14:40:37;17.90;;;11.90;;
3991;SDS011;2010;48.194;16.394;2024-03-08T14:43:14;21.33;;;13.60;;
3991;SDS011;2010;48.194;16.394;2024-03-08T14:45:47;18.67;;;12.80;;
3991;SDS011;2010;48.194;16.394;2024-03-08T14:48:23;18.97;;;12.03;;
3991;SDS011;2010;48.194;16.394;2024-03-08T14:50:54;17.10;;;11.93;;
3991;SDS011;2010;48.194;16.394;2024-03-08T14:53:25;16.70;;;12.27;;
3991;SDS011;2010;48.194;16.394;2024-03-08T14:56:00;17.60;;;12.17;;
3991;SDS011;2010;48.194;16.394;2024-03-08T14:58:30;17.80;;;12.87;;
3991;SDS011;2010;48.194;16.394;2024-03-08T15:01:13;21.33;;;12.87;;
3991;SDS011;2010;48.194;16.394;2024-03-08T15:03:42;23.33;;;14.83;;
3991;SDS011;2010;48.194;16.394;2024-03-08T15:06:14;18.50;;;12.73;;
3991;SDS011;2010;48.194;16.394;2024-03-08T15:08:52;21.77;;;13.33;;
3991;SDS011;2010;48.194;16.394;2024-03-08T15:11:23;20.53;;;13.30;;
3991;SDS011;2010;48.194;16.394;2024-03-08T15:13:53;22.20;;;13.00;;
3991;SDS011;2010;48.194;16.394;2024-03-08T15:16:28;16.73;;;12.60;;
3991;SDS011;2010;48.194;16.394;2024-03-08T15:19:02;21.57;;;13.83;;
3991;SDS011;2010;48.194;16.394;2024-03-08T15:21:41;20.33;;;12.73;;